createdAt,value
2022-09-21T00:01:07.866Z,101210.42
2022-09-21T00:03:41.590Z,101219.91
2022-09-21T00:06:17.215Z,101225.98
2022-09-21T00:08:50.152Z,101225.52
2022-09-21T00:11:25.330Z,101227.41
2022-09-21T00:13:59.876Z,101224.42
2022-09-21T00:16:32.632Z,101227.02
2022-09-21T00:19:05.155Z,101229.70
2022-09-21T00:21:39.353Z,101233.56
2022-09-21T00:24:12.270Z,101229.52
2022-09-21T00:26:44.506Z,101230.90
2022-09-21T00:29:16.637Z,101229.29
2022-09-21T00:31:49.299Z,101230.58
2022-09-21T00:34:21.326Z,101225.93
2022-09-21T00:36:53.597Z,101214.86
2022-09-21T00:39:25.995Z,101234.55
2022-09-21T00:41:57.946Z,101231.48
2022-09-21T00:44:35.024Z,101237.71
2022-09-21T00:47:11.791Z,101239.30
2022-09-21T00:49:49.551Z,101237.74
2022-09-21T00:52:23.936Z,101238.69
2022-09-21T00:54:59.579Z,101222.58
2022-09-21T00:57:35.685Z,101236.55
2022-09-21T01:00:10.782Z,101239.64
2022-09-21T01:02:43.694Z,101238.48
2022-09-21T01:05:15.761Z,101243.67
2022-09-21T01:07:49.746Z,101239.60
2022-09-21T01:10:22.779Z,101235.14
2022-09-21T01:13:07.354Z,101244.55
2022-09-21T01:15:47.394Z,101245.36
2022-09-21T01:18:29.430Z,101244.26
2022-09-21T01:21:26.076Z,101242.75
2022-09-21T01:24:27.473Z,101244.74
2022-09-21T01:27:36.348Z,101237.52
2022-09-21T01:30:12.299Z,101245.05
2022-09-21T01:32:51.595Z,101248.02
2022-09-21T01:35:29.546Z,101250.06
2022-09-21T01:38:05.489Z,101249.68
2022-09-21T01:40:41.595Z,101255.21
2022-09-21T01:43:19.792Z,101254.83
2022-09-21T01:45:55.002Z,101254.70
2022-09-21T01:48:27.959Z,101253.96
2022-09-21T01:51:02.957Z,101253.23
2022-09-21T01:53:38.563Z,101259.27
2022-09-21T01:56:16.897Z,101263.09
2022-09-21T01:58:56.060Z,101265.16
2022-09-21T02:01:31.910Z,101267.80
2022-09-21T02:04:10.369Z,101271.34
2022-09-21T02:06:45.449Z,101269.09
2022-09-21T02:09:18.219Z,101261.63
2022-09-21T02:11:50.284Z,101269.98
2022-09-21T02:14:26.239Z,101269.55
2022-09-21T02:17:11.722Z,101272.46
2022-09-21T02:19:51.488Z,101271.81
2022-09-21T02:22:33.395Z,101276.30
2022-09-21T02:25:12.176Z,101278.70
2022-09-21T02:27:52.213Z,101277.10
2022-09-21T02:30:26.042Z,101281.38
2022-09-21T02:33:04.196Z,101278.40
2022-09-21T02:35:43.497Z,101280.69
2022-09-21T02:38:26.533Z,101283.52
2022-09-21T02:41:06.643Z,101284.95
2022-09-21T02:43:42.631Z,101282.88
2022-09-21T02:46:20.568Z,101272.35
2022-09-21T02:48:55.778Z,101287.23
2022-09-21T02:51:31.111Z,101283.91
2022-09-21T02:54:08.006Z,101287.91
2022-09-21T02:56:40.676Z,101292.64
2022-09-21T02:59:13.770Z,101292.83
2022-09-21T03:01:47.060Z,101294.86
2022-09-21T03:04:19.579Z,101302.01
2022-09-21T03:06:52.169Z,101303.91
2022-09-21T03:09:24.647Z,101306.10
2022-09-21T03:11:56.730Z,101308.92
2022-09-21T03:14:29.195Z,101312.34
2022-09-21T03:17:01.636Z,101312.08
2022-09-21T03:19:33.812Z,101306.01
2022-09-21T03:22:06.063Z,101307.73
2022-09-21T03:24:48.042Z,101307.65
2022-09-21T03:27:23.079Z,101308.48
2022-09-21T03:29:57.654Z,101309.37
2022-09-21T03:32:32.154Z,101313.20
2022-09-21T03:35:05.052Z,101312.86
2022-09-21T03:37:41.187Z,101317.69
2022-09-21T03:40:14.164Z,101318.39
2022-09-21T03:42:46.761Z,101314.34
2022-09-21T03:45:19.447Z,101316.33
2022-09-21T03:47:51.768Z,101277.04
2022-09-21T03:50:23.955Z,101320.95
2022-09-21T03:52:55.949Z,101323.46
2022-09-21T03:55:29.877Z,101324.52
2022-09-21T03:58:02.235Z,101328.67
2022-09-21T04:00:34.866Z,101324.88
2022-09-21T04:03:06.993Z,101329.87
2022-09-21T04:05:39.690Z,101335.89
2022-09-21T04:08:12.080Z,101336.09
2022-09-21T04:10:44.230Z,101340.10
2022-09-21T04:13:16.989Z,101337.94
2022-09-21T04:15:49.204Z,101336.31
2022-09-21T04:18:21.172Z,101335.89
2022-09-21T04:20:53.274Z,101338.20
2022-09-21T04:23:25.303Z,101334.46
2022-09-21T04:25:58.923Z,101335.86
2022-09-21T04:28:32.865Z,101343.38
2022-09-21T04:31:05.452Z,101342.13
2022-09-21T04:33:38.498Z,101349.05
2022-09-21T04:36:10.989Z,101347.61
2022-09-21T04:38:43.147Z,101350.73
2022-09-21T04:41:16.219Z,101346.27
2022-09-21T04:43:49.749Z,101348.62
2022-09-21T04:46:23.496Z,101352.25
2022-09-21T04:48:55.813Z,101341.52
2022-09-21T04:51:27.772Z,101351.98
2022-09-21T04:54:01.090Z,101326.55
2022-09-21T04:56:33.279Z,101337.76
2022-09-21T04:59:06.480Z,101337.92
2022-09-21T05:01:39.186Z,101355.98
2022-09-21T05:04:11.941Z,101353.67
2022-09-21T05:06:44.174Z,101340.14
2022-09-21T05:09:33.921Z,101353.84
2022-09-21T05:12:07.145Z,101358.91
2022-09-21T05:14:39.161Z,101357.86
2022-09-21T05:17:11.487Z,101360.61
2022-09-21T05:19:43.863Z,101369.48
2022-09-21T05:22:15.996Z,101368.80
2022-09-21T05:24:48.107Z,101374.83
2022-09-21T05:27:20.160Z,101366.40
2022-09-21T05:29:54.145Z,101366.41
2022-09-21T05:32:34.203Z,101387.35
2022-09-21T05:35:14.535Z,101391.59
2022-09-21T05:37:58.397Z,101388.58
2022-09-21T05:40:31.766Z,101387.05
2022-09-21T05:43:05.106Z,101389.09
2022-09-21T05:45:38.848Z,101394.65
2022-09-21T05:48:16.527Z,101397.77
2022-09-21T05:50:57.028Z,101391.96
2022-09-21T05:53:42.264Z,101401.39
2022-09-21T05:56:25.732Z,101398.58
2022-09-21T05:59:06.800Z,101395.89
2022-09-21T06:01:50.612Z,101412.63
2022-09-21T06:04:24.067Z,101417.59
2022-09-21T06:06:56.326Z,101416.92
2022-09-21T06:09:28.530Z,101415.17
2022-09-21T06:12:00.774Z,101411.09
2022-09-21T06:14:32.876Z,101412.43
2022-09-21T06:17:06.144Z,101417.14
2022-09-21T06:19:38.388Z,101416.39
2022-09-21T06:22:10.552Z,101417.15
2022-09-21T06:24:42.631Z,101418.43
2022-09-21T06:27:14.819Z,101414.17
2022-09-21T06:29:47.064Z,101420.00
2022-09-21T06:32:20.833Z,101419.96
2022-09-21T06:34:53.152Z,101418.73
2022-09-21T06:37:25.275Z,101421.71
2022-09-21T06:39:57.443Z,101419.81
2022-09-21T06:42:29.997Z,101422.10
2022-09-21T06:45:03.708Z,101420.33
2022-09-21T06:47:36.041Z,101423.25
2022-09-21T06:50:09.602Z,101425.22
2022-09-21T06:52:42.131Z,101418.97
2022-09-21T06:55:15.100Z,101423.70
2022-09-21T06:57:47.349Z,101421.98
2022-09-21T07:00:20.252Z,101430.86
2022-09-21T07:02:52.326Z,101430.11
2022-09-21T07:05:24.630Z,101433.64
2022-09-21T07:08:01.218Z,101433.27
2022-09-21T07:10:33.726Z,101427.48
2022-09-21T07:13:09.786Z,101438.29
2022-09-21T07:15:41.814Z,101439.20
2022-09-21T07:18:17.333Z,101440.65
2022-09-21T07:20:50.389Z,101446.33
2022-09-21T07:23:23.288Z,101447.19
2022-09-21T07:25:55.702Z,101446.61
2022-09-21T07:28:27.916Z,101447.05
2022-09-21T07:31:00.495Z,101440.27
2022-09-21T07:33:36.133Z,101439.48
2022-09-21T07:36:11.328Z,101437.23
2022-09-21T07:38:45.301Z,101436.88
2022-09-21T07:41:17.678Z,101442.80
2022-09-21T07:43:49.746Z,101441.64
2022-09-21T07:46:23.824Z,101441.71
2022-09-21T07:48:58.726Z,101440.00
2022-09-21T07:51:29.180Z,101439.86
2022-09-21T07:54:01.159Z,101443.19
2022-09-21T07:56:33.292Z,101439.84
2022-09-21T07:59:08.389Z,101444.35
2022-09-21T08:01:42.288Z,101441.48
2022-09-21T08:04:14.511Z,101448.52
2022-09-21T08:06:46.990Z,101450.85
2022-09-21T08:09:19.250Z,101453.04
2022-09-21T08:11:52.118Z,101447.46
2022-09-21T08:14:26.562Z,101455.34
2022-09-21T08:16:58.959Z,101450.73
2022-09-21T08:19:32.033Z,101455.19
2022-09-21T08:22:04.017Z,101438.90
2022-09-21T08:24:37.742Z,101450.77
2022-09-21T08:27:10.150Z,101455.47
2022-09-21T08:29:42.647Z,101455.64
2022-09-21T08:32:32.972Z,101453.96
2022-09-21T08:35:08.015Z,101454.48
2022-09-21T08:37:40.280Z,101452.79
2022-09-21T08:40:16.969Z,101454.58
2022-09-21T08:42:58.973Z,101457.77
2022-09-21T08:45:36.369Z,101460.31
2022-09-21T08:48:20.256Z,101444.66
2022-09-21T08:50:57.583Z,101466.10
2022-09-21T08:53:35.465Z,101460.55
2022-09-21T08:56:09.938Z,101457.50
2022-09-21T08:58:43.689Z,101450.95
2022-09-21T09:01:32.823Z,101453.67
2022-09-21T09:04:39.360Z,101457.23
2022-09-21T09:07:27.396Z,101459.28
2022-09-21T09:10:14.372Z,101463.02
2022-09-21T09:12:58.087Z,101462.60
2022-09-21T09:15:46.137Z,101465.90
2022-09-21T09:18:26.619Z,101467.52
2022-09-21T09:21:02.252Z,101453.63
2022-09-21T09:23:39.175Z,101459.23
2022-09-21T09:26:16.891Z,101459.70
2022-09-21T09:28:54.648Z,101458.26
2022-09-21T09:31:30.927Z,101459.25
2022-09-21T09:34:11.037Z,101454.95
2022-09-21T09:36:58.294Z,101457.33
2022-09-21T09:39:32.908Z,101452.48
2022-09-21T09:42:16.573Z,101450.58
2022-09-21T09:45:09.900Z,101439.45
2022-09-21T09:47:57.229Z,101445.80
2022-09-21T09:50:32.355Z,101447.21
2022-09-21T09:53:10.617Z,101445.92
2022-09-21T09:55:46.368Z,101447.36
2022-09-21T09:58:25.350Z,101447.52
2022-09-21T10:00:59.064Z,101447.92
2022-09-21T10:03:32.053Z,101445.52
2022-09-21T10:06:04.980Z,101447.03
2022-09-21T10:08:47.477Z,101449.10
2022-09-21T10:11:20.338Z,101447.67
2022-09-21T10:13:53.994Z,101445.52
2022-09-21T10:16:26.850Z,101447.55
2022-09-21T10:19:02.677Z,101445.55
2022-09-21T10:21:38.896Z,101440.20
2022-09-21T10:24:21.846Z,101439.14
2022-09-21T10:26:56.516Z,101441.36
2022-09-21T10:29:39.538Z,101438.11
2022-09-21T10:32:26.458Z,101437.93
2022-09-21T10:35:19.306Z,101438.19
2022-09-21T10:38:10.183Z,101437.35
2022-09-21T10:40:44.796Z,101437.08
2022-09-21T10:43:31.820Z,101437.99
2022-09-21T10:46:06.198Z,101433.30
2022-09-21T10:48:38.788Z,101443.48
2022-09-21T10:51:29.552Z,101429.83
2022-09-21T10:54:01.715Z,101440.88
2022-09-21T10:56:34.195Z,101442.20
2022-09-21T10:59:25.134Z,101439.55
2022-09-21T11:01:59.123Z,101421.80
2022-09-21T11:04:47.109Z,101436.96
2022-09-21T11:07:25.776Z,101432.73
2022-09-21T11:10:05.060Z,101426.14
2022-09-21T11:12:48.533Z,101422.19
2022-09-21T11:15:33.866Z,101409.35
2022-09-21T11:18:15.122Z,101404.55
2022-09-21T11:20:50.888Z,101407.08
2022-09-21T11:23:37.546Z,101411.20
2022-09-21T11:26:19.437Z,101404.55
2022-09-21T11:28:57.950Z,101410.80
2022-09-21T11:31:45.177Z,101402.26
2022-09-21T11:34:48.670Z,101402.84
2022-09-21T11:37:35.975Z,101403.23
2022-09-21T11:40:26.321Z,101401.66
2022-09-21T11:43:13.557Z,101406.33
2022-09-21T11:46:00.389Z,101405.00
2022-09-21T11:48:48.824Z,101403.11
2022-09-21T11:51:38.975Z,101389.78
2022-09-21T11:54:36.551Z,101404.93
2022-09-21T11:57:19.114Z,101394.37
2022-09-21T12:00:07.083Z,101388.31
2022-09-21T12:03:07.684Z,101385.60
2022-09-21T12:05:46.094Z,101381.25
2022-09-21T12:08:50.763Z,101383.60
2022-09-21T12:11:33.307Z,101379.16
2022-09-21T12:14:19.195Z,101373.45
2022-09-21T12:17:00.423Z,101374.44
2022-09-21T12:19:46.231Z,101362.58
2022-09-21T12:22:23.740Z,101384.03
2022-09-21T12:24:59.338Z,101386.19
2022-09-21T12:27:37.842Z,101392.79
2022-09-21T12:30:17.082Z,101391.86
2022-09-21T12:32:56.693Z,101393.64
2022-09-21T12:35:36.120Z,101392.52
2022-09-21T12:38:16.568Z,101381.79
2022-09-21T12:40:53.485Z,101374.38
2022-09-21T12:43:40.467Z,101388.44
2022-09-21T12:46:18.514Z,101394.46
2022-09-21T12:48:51.036Z,101384.70
2022-09-21T12:51:31.800Z,101379.23
2022-09-21T12:54:14.534Z,101374.64
2022-09-21T12:56:54.984Z,101383.36
2022-09-21T12:59:38.611Z,101379.95
2022-09-21T13:02:21.439Z,101382.63
2022-09-21T13:05:04.061Z,101387.30
2022-09-21T13:08:12.485Z,101387.91
2022-09-21T13:10:54.693Z,101390.27
2022-09-21T13:13:31.592Z,101396.61
2022-09-21T13:16:05.655Z,101395.00
2022-09-21T13:18:40.921Z,101395.41
2022-09-21T13:21:22.205Z,101385.84
2022-09-21T13:23:59.389Z,101392.70
2022-09-21T13:26:40.516Z,101390.33
2022-09-21T13:29:36.549Z,101388.33
2022-09-21T13:32:25.318Z,101384.37
2022-09-21T13:35:34.699Z,101384.88
2022-09-21T13:38:31.040Z,101383.14
2022-09-21T13:41:05.248Z,101386.64
2022-09-21T13:44:05.116Z,101381.52
2022-09-21T13:46:53.350Z,101381.20
2022-09-21T13:49:34.830Z,101382.74
2022-09-21T13:52:18.742Z,101379.73
2022-09-21T13:54:53.534Z,101378.80
2022-09-21T13:57:32.238Z,101376.39
2022-09-21T14:00:33.369Z,101375.02
2022-09-21T14:03:18.509Z,101374.17
2022-09-21T14:05:51.057Z,101366.78
2022-09-21T14:08:27.964Z,101370.96
2022-09-21T14:11:03.096Z,101367.57
2022-09-21T14:13:41.632Z,101355.51
2022-09-21T14:17:04.733Z,101368.60
2022-09-21T14:20:08.108Z,101371.76
2022-09-21T14:22:49.604Z,101367.18
2022-09-21T14:25:52.347Z,101369.91
2022-09-21T14:28:35.758Z,101366.44
2022-09-21T14:31:19.308Z,101365.61
2022-09-21T14:33:55.374Z,101362.12
2022-09-21T14:36:34.820Z,101365.91
2022-09-21T14:39:09.202Z,101366.67
2022-09-21T14:41:44.342Z,101359.76
2022-09-21T14:44:23.434Z,101358.05
2022-09-21T14:47:15.523Z,101359.25
2022-09-21T14:50:05.642Z,101357.44
2022-09-21T14:52:49.301Z,101356.14
2022-09-21T14:55:26.190Z,101354.62
2022-09-21T14:58:17.635Z,101346.84
2022-09-21T15:00:51.421Z,101352.63
2022-09-21T15:03:41.834Z,101349.63
2022-09-21T15:06:40.783Z,101353.71
2022-09-21T15:09:52.878Z,101354.46
2022-09-21T15:12:30.168Z,101337.11
2022-09-21T15:15:13.208Z,101363.39
2022-09-21T15:17:59.659Z,101366.72
2022-09-21T15:20:33.272Z,101371.34
2022-09-21T15:23:20.667Z,101366.79
2022-09-21T15:26:02.243Z,101365.35
2022-09-21T15:29:05.053Z,101363.23
2022-09-21T15:31:37.258Z,101363.70
2022-09-21T15:34:12.021Z,101362.29
2022-09-21T15:36:45.571Z,101358.81
2022-09-21T15:39:29.108Z,101356.79
2022-09-21T15:42:20.108Z,101358.45
2022-09-21T15:45:06.143Z,101362.61
2022-09-21T15:47:39.407Z,101361.36
2022-09-21T15:50:17.458Z,101361.95
2022-09-21T15:52:53.379Z,101361.38
2022-09-21T15:55:26.098Z,101359.83
2022-09-21T15:57:59.530Z,101363.96
2022-09-21T16:00:35.368Z,101363.55
2022-09-21T16:03:19.132Z,101366.29
2022-09-21T16:05:54.557Z,101370.56
2022-09-21T16:08:35.247Z,101371.94
2022-09-21T16:11:20.085Z,101360.98
2022-09-21T16:14:19.362Z,101358.58
2022-09-21T16:17:21.239Z,101374.52
2022-09-21T16:20:23.548Z,101376.22
2022-09-21T16:23:06.678Z,101377.45
2022-09-21T16:25:39.280Z,101363.59
2022-09-21T16:28:38.354Z,101383.63
2022-09-21T16:31:32.885Z,101382.80
2022-09-21T16:34:20.063Z,101376.37
2022-09-21T16:36:54.155Z,101389.77
2022-09-21T16:39:27.456Z,101391.13
2022-09-21T16:42:04.027Z,101389.73
2022-09-21T16:44:44.909Z,101386.56
2022-09-21T16:47:25.668Z,101384.10
2022-09-21T16:50:01.856Z,101377.63
2022-09-21T16:52:34.172Z,101392.67
2022-09-21T16:55:07.683Z,101391.91
2022-09-21T16:57:42.682Z,101392.55
2022-09-21T17:00:14.780Z,101392.70
2022-09-21T17:02:46.828Z,101396.42
2022-09-21T17:05:19.483Z,101399.23
2022-09-21T17:07:59.317Z,101399.98
2022-09-21T17:10:37.224Z,101401.40
2022-09-21T17:13:10.248Z,101400.44
2022-09-21T17:15:48.633Z,101404.00
2022-09-21T17:18:20.775Z,101405.14
2022-09-21T17:20:53.168Z,101407.23
2022-09-21T17:23:29.264Z,101410.92
2022-09-21T17:26:01.850Z,101408.19
2022-09-21T17:28:34.567Z,101405.44
2022-09-21T17:31:09.463Z,101405.39
2022-09-21T17:33:42.368Z,101407.88
2022-09-21T17:36:16.461Z,101412.78
2022-09-21T17:38:51.365Z,101412.02
2022-09-21T17:41:32.524Z,101419.13
2022-09-21T17:44:12.298Z,101421.02
2022-09-21T17:46:53.950Z,101421.80
2022-09-21T17:49:27.042Z,101425.04
2022-09-21T17:52:17.698Z,101427.42
2022-09-21T17:54:53.006Z,101426.94
2022-09-21T17:57:36.391Z,101433.17
2022-09-21T18:00:19.964Z,101434.78
2022-09-21T18:02:53.996Z,101432.36
2022-09-21T18:05:28.333Z,101434.34
2022-09-21T18:08:01.845Z,101443.55
2022-09-21T18:10:34.943Z,101447.63
2022-09-21T18:13:23.205Z,101448.27
2022-09-21T18:16:06.405Z,101429.74
2022-09-21T18:18:45.875Z,101454.35
2022-09-21T18:21:21.614Z,101447.15
2022-09-21T18:24:19.634Z,101450.18
2022-09-21T18:26:53.300Z,101450.54
2022-09-21T18:29:40.801Z,101452.00
2022-09-21T18:32:30.374Z,101457.05
2022-09-21T18:35:34.940Z,101442.49
2022-09-21T18:38:22.173Z,101461.02
2022-09-21T18:41:13.396Z,101462.32
2022-09-21T18:44:05.149Z,101469.61
2022-09-21T18:46:48.857Z,101449.17
2022-09-21T18:49:44.416Z,101465.52
2022-09-21T18:52:26.433Z,101466.73
2022-09-21T18:54:59.698Z,101466.73
2022-09-21T18:57:33.032Z,101467.68
2022-09-21T19:00:07.274Z,101465.21
2022-09-21T19:02:53.530Z,101465.82
2022-09-21T19:05:38.625Z,101462.77
2022-09-21T19:08:20.975Z,101472.40
2022-09-21T19:11:03.169Z,101471.91
2022-09-21T19:13:51.147Z,101473.16
2022-09-21T19:16:32.874Z,101475.61
2022-09-21T19:19:18.259Z,101474.45
2022-09-21T19:21:57.494Z,101469.34
2022-09-21T19:24:39.282Z,101471.78
2022-09-21T19:27:19.936Z,101473.20
2022-09-21T19:30:04.427Z,101475.14
2022-09-21T19:32:45.876Z,101470.05
2022-09-21T19:35:22.990Z,101456.21
2022-09-21T19:37:57.421Z,101467.44
2022-09-21T19:40:33.020Z,101474.33
2022-09-21T19:43:28.458Z,101471.99
2022-09-21T19:46:20.103Z,101467.48
2022-09-21T19:48:59.652Z,101475.91
2022-09-21T19:51:38.833Z,101481.67
2022-09-21T19:54:33.755Z,101480.55
2022-09-21T19:57:31.148Z,101483.70
2022-09-21T20:00:05.555Z,101488.10
2022-09-21T20:02:43.070Z,101485.77
2022-09-21T20:05:23.573Z,101483.47
2022-09-21T20:08:04.409Z,101481.95
2022-09-21T20:10:57.208Z,101479.06
2022-09-21T20:13:43.194Z,101480.51
2022-09-21T20:16:37.522Z,101483.68
2022-09-21T20:19:20.941Z,101477.80
2022-09-21T20:21:58.843Z,101478.23
2022-09-21T20:24:40.011Z,101473.83
2022-09-21T20:27:26.546Z,101468.77
2022-09-21T20:30:01.404Z,101470.80
2022-09-21T20:32:32.260Z,101468.02
2022-09-21T20:35:04.702Z,101475.81
2022-09-21T20:37:38.034Z,101482.24
2022-09-21T20:40:13.501Z,101463.20
2022-09-21T20:42:45.960Z,101479.90
2022-09-21T20:45:19.477Z,101468.10
2022-09-21T20:47:53.876Z,101479.33
2022-09-21T20:50:26.804Z,101477.13
2022-09-21T20:53:00.413Z,101482.39
2022-09-21T20:55:37.518Z,101479.14
2022-09-21T20:58:11.983Z,101481.94
2022-09-21T21:00:46.652Z,101466.41
2022-09-21T21:03:17.340Z,101482.70
2022-09-21T21:05:49.900Z,101482.66
2022-09-21T21:08:21.908Z,101483.88
2022-09-21T21:10:56.674Z,101481.14
2022-09-21T21:13:29.533Z,101482.74
2022-09-21T21:16:08.184Z,101487.92
2022-09-21T21:18:44.104Z,101484.52
2022-09-21T21:21:16.838Z,101482.17
2022-09-21T21:24:10.404Z,101485.45
2022-09-21T21:27:01.133Z,101484.35
2022-09-21T21:29:34.537Z,101483.05
2022-09-21T21:32:07.407Z,101481.43
2022-09-21T21:34:39.867Z,101481.52
2022-09-21T21:37:13.109Z,101464.61
2022-09-21T21:39:46.119Z,101462.17
2022-09-21T21:42:18.618Z,101476.13
2022-09-21T21:44:51.627Z,101481.20
2022-09-21T21:47:40.490Z,101485.64
2022-09-21T21:50:14.680Z,101483.96
2022-09-21T21:52:46.678Z,101482.62
2022-09-21T21:55:18.591Z,101481.15
2022-09-21T21:57:51.600Z,101480.16
2022-09-21T22:00:23.836Z,101480.27
2022-09-21T22:02:58.195Z,101478.33
2022-09-21T22:05:30.347Z,101476.72
2022-09-21T22:08:02.664Z,101478.67
2022-09-21T22:10:35.107Z,101478.65
2022-09-21T22:13:08.430Z,101482.92
2022-09-21T22:15:41.108Z,101484.48
2022-09-21T22:18:13.443Z,101485.37
2022-09-21T22:20:46.144Z,101487.89
2022-09-21T22:23:18.241Z,101486.19
2022-09-21T22:25:50.467Z,101484.77
2022-09-21T22:28:22.419Z,101482.81
2022-09-21T22:30:54.616Z,101479.29
2022-09-21T22:33:31.123Z,101477.44
2022-09-21T22:36:07.320Z,101475.44
2022-09-21T22:38:42.712Z,101477.10
2022-09-21T22:41:18.377Z,101465.59
2022-09-21T22:43:51.949Z,101468.22
2022-09-21T22:46:24.952Z,101468.55
2022-09-21T22:48:56.945Z,101470.77
2022-09-21T22:51:30.114Z,101457.90
2022-09-21T22:54:02.368Z,101470.88
2022-09-21T22:56:35.559Z,101457.84
2022-09-21T22:59:08.565Z,101465.27
2022-09-21T23:01:41.451Z,101462.09
2022-09-21T23:04:15.405Z,101458.03
2022-09-21T23:06:49.604Z,101459.59
2022-09-21T23:09:22.734Z,101460.78
2022-09-21T23:11:55.097Z,101466.97
2022-09-21T23:14:27.269Z,101469.77
2022-09-21T23:16:59.665Z,101470.39
2022-09-21T23:19:32.232Z,101466.21
2022-09-21T23:22:04.595Z,101467.11
2022-09-21T23:24:36.888Z,101446.85
2022-09-21T23:27:09.220Z,101468.50
2022-09-21T23:29:41.537Z,101466.93
2022-09-21T23:32:13.583Z,101473.64
2022-09-21T23:34:46.026Z,101480.73
2022-09-21T23:37:18.318Z,101473.63
2022-09-21T23:39:50.940Z,101469.70
2022-09-21T23:42:23.344Z,101477.12
2022-09-21T23:44:55.737Z,101474.44
2022-09-21T23:47:27.823Z,101482.87
2022-09-21T23:50:00.038Z,101485.35
2022-09-21T23:52:32.671Z,101488.22
2022-09-21T23:55:05.203Z,101494.56
2022-09-21T23:57:37.220Z,101497.30
